KTYR - Tyler, Texas, USA
Distance from station: WNW 10mi, 17km
Updated: Mon, 18-Jun-2018 7:53am CDT
Overcast
Overcast
 Wind from SE
Wind: SE 10 mph , 17 km/h
Temperature: 75°F , 24°C
Dew Point: 72°F , 22°C
Humidity: 89%
Barometer: 30.03 inHg , 1016.9 hPa
Clouds: Overcast
Visibility: 7 miles , 11 km
Cloud details: Overcast 1000 ft
2018/06/18 12:53 KTYR 181253Z 13009KT 7SM OVC010 24/22 A3003
KRFI - Henderson Rusk C, Texas, USA
Distance from station: ESE 25mi, 40km
Updated: Mon, 18-Jun-2018 8:15am CDT
Overcast
Overcast
 Wind from ESE
Wind: ESE 9 mph , 15 km/h
Temperature: 77°F , 25°C
Dew Point: 72°F , 22°C
Humidity: 83%
Barometer: 30.04 inHg , 1017.3 hPa
Clouds: Overcast
Visibility: 10 miles , 16 km
Cloud details: Overcast 1100 ft
2018/06/18 13:15 KRFI 181315Z AUTO 11008KT 10SM OVC011 25/22 A3004 RMK AO2 T02480219
 
KJSO - Jacksonville, Texas, USA
Distance from station: S 30mi, 48km
Updated: Mon, 18-Jun-2018 8:15am CDT
Overcast
Overcast
 Wind from E
Wind: E 7 mph , 11 km/h
Temperature: 73°F , 23°C
Dew Point: 72°F , 22°C
Humidity: 94%
Barometer: 30.04 inHg , 1017.3 hPa
Clouds: Overcast
Visibility: 10 miles , 16 km
Cloud details: Overcast 800 ft
2018/06/18 13:15 KJSO 181315Z AUTO 10006KT 10SM OVC008 23/22 A3004 RMK AO2 T02370221
KGGG - Longview, Texas, USA
Distance from station: ENE 31mi, 50km
Updated: Mon, 18-Jun-2018 7:53am CDT
Partly Cloudy
Partly Cloudy
 Wind from E
Wind: E 9 mph , 15 km/h
Temperature: 75°F , 24°C
Dew Point: 73°F , 23°C
Humidity: 94%
Barometer: 30.03 inHg , 1016.9 hPa
Clouds: Partly Cloudy
Visibility: 10 miles , 16 km
Cloud details: Partly Cloudy 800 ft
2018/06/18 12:53 KGGG 181253Z 10008KT 10SM SCT008 24/23 A3003 RMK AO2 SLP161 T02440228
 
KJXI - Gilmer Muni, Texas, USA
Distance from station: NNE 33mi, 53km
Updated: Mon, 18-Jun-2018 8:15am CDT
Overcast
Overcast
 Wind from E
Wind: E 9 mph , 15 km/h
Temperature: 77°F , 25°C
Dew Point: 72°F , 22°C
Humidity: 83%
Barometer: 30.04 inHg , 1017.3 hPa
Clouds: Overcast
Visibility: 10 miles , 16 km
Cloud details: Partly Cloudy 1000 ft
Mostly Cloudy 1600 ft
Overcast 3500 ft
2018/06/18 13:15 KJXI 181315Z AUTO 10008KT 10SM SCT010 BKN016 OVC035 25/22 A3004 RMK AO2 T02460217
KJDD - Mineola/Quitman, Texas, USA
Distance from station: NNW 35mi, 56km
Updated: Mon, 18-Jun-2018 8:15am CDT
Overcast
Overcast
 Wind from E
Wind: E 3 mph , 6 km/h
Temperature: 77°F , 25°C
Dew Point: 72°F , 22°C
Humidity: 83%
Barometer: 30.04 inHg , 1017.3 hPa
Clouds: Overcast
Visibility: 10 miles , 16 km
Cloud details: Mostly Cloudy 1100 ft
Overcast 2000 ft
2018/06/18 13:15 KJDD 181315Z AUTO 09003KT 10SM BKN011 OVC020 25/22 A3004 RMK AO2
 
KF44 - Athens, Texas, USA
Distance from station: WSW 36mi, 57km
Updated: Mon, 18-Jun-2018 8:15am CDT
Overcast
Overcast
 Wind from ESE
Wind: ESE 7 mph , 11 km/h
Temperature: 77°F , 25°C
Dew Point: 72°F , 22°C
Humidity: 83%
Barometer: 30.00 inHg , 1015.9 hPa
Clouds: Overcast
Visibility: 10 miles , 16 km
Cloud details: Overcast 1300 ft
2018/06/18 13:15 KF44 181315Z AUTO 12006KT 10SM OVC013 25/22 A3000 RMK AO2
KPSN - Palestine Muni, Texas, USA
Distance from station: SW 44mi, 71km
Updated: Mon, 18-Jun-2018 8:15am CDT
Overcast
Overcast
 Wind from E
Wind: E 12 mph , 19 km/h, Gust: 17 mph , 28 km/h
Temperature: 77°F , 25°C
Dew Point: 72°F , 22°C
Humidity: 83%
Barometer: 30.01 inHg , 1016.3 hPa
Clouds: Overcast
Visibility: 10 miles , 16 km
Cloud details: Overcast 1200 ft
2018/06/18 13:15 KPSN 181315Z AUTO 09010G15KT 10SM OVC012 25/22 A3001 RMK AO2 T02520223
 
KASL - Marshall, Texas, USA
Distance from station: ENE 57mi, 92km
Updated: Mon, 18-Jun-2018 8:15am CDT
Partly Cloudy
Partly Cloudy
 Wind from SE
Wind: SE 6 mph , 9 km/h
Temperature: 75°F , 24°C
Dew Point: 70°F , 21°C
Humidity: 83%
Barometer: 30.06 inHg , 1017.9 hPa
Clouds: Partly Cloudy
Visibility: 10 miles , 16 km
Cloud details: Partly Cloudy 800 ft
Partly Cloudy 3800 ft
2018/06/18 13:15 KASL 181315Z AUTO 14005KT 10SM SCT008 SCT038 24/21 A3006 RMK AO1 T02400209
KOSA - Mount Pleasant, Texas, USA
Distance from station: NNE 58mi, 93km
Updated: Mon, 18-Jun-2018 8:15am CDT
Partly Cloudy
Partly Cloudy
 Wind from ESE
Wind: ESE 6 mph , 9 km/h
Temperature: 77°F , 25°C
Dew Point: 72°F , 22°C
Humidity: 83%
Barometer: 30.07 inHg , 1018.3 hPa
Clouds: Partly Cloudy
Visibility: 10 miles , 16 km
Cloud details: Partly Cloudy 1100 ft
Partly Cloudy 2300 ft
2018/06/18 13:15 KOSA 181315Z AUTO 11005KT 10SM SCT011 SCT023 25/22 A3007 RMK AO1 T02490221
 
KOCH - Nacogdoches, Texas, USA
Distance from station: SSE 59mi, 95km
Updated: Mon, 18-Jun-2018 7:56am CDT

 Wind from ESE
Wind: ESE 10 mph , 17 km/h
Temperature: 75°F , 24°C
Dew Point: 72°F , 22°C
Humidity: 89%
Barometer: 30.02 inHg , 1016.6 hPa
Visibility: 10 miles , 16 km
2018/06/18 12:56 KOCH 181256Z AUTO 11009KT 10SM 24/22 A3002 RMK AO2 SLP166 T02440222 $
KSLR - Sulphur Springs, Texas, USA
Distance from station: NNW 64mi, 103km
Updated: Mon, 18-Jun-2018 8:15am CDT
Overcast
Overcast
 Wind from SE
Wind: SE 9 mph , 15 km/h
Temperature: 79°F , 26°C
Dew Point: 72°F , 22°C
Humidity: 79%
Barometer: 30.06 inHg , 1017.9 hPa
Clouds: Overcast
Visibility: 10 miles , 16 km
Cloud details: Overcast 1300 ft
2018/06/18 13:15 KSLR 181315Z AUTO 14008KT 10SM OVC013 26/22 A3006 RMK AO2 T02550221
 
KTRL - Terrell, Texas, USA
Distance from station: WNW 66mi, 107km
Updated: Mon, 18-Jun-2018 8:25am CDT
Mostly Cloudy
Mostly Cloudy
 Wind from SE
Wind: SE 10 mph , 17 km/h
Temperature: 81°F , 27°C
Heat Index: 85°F , 29°C
Dew Point: 72°F , 22°C
Humidity: 74%
Barometer: 30.03 inHg , 1016.9 hPa
Clouds: Mostly Cloudy
Visibility: 10 miles , 16 km
Cloud details: Mostly Cloudy 1600 ft
2018/06/18 13:25 KTRL 181325Z AUTO 14009KT 10SM BKN016 27/22 A3003 RMK AO2 T02670217
KCRS - Corsicana, Texas, USA
Distance from station: WSW 70mi, 113km
Updated: Mon, 18-Jun-2018 8:27am CDT
Mostly Cloudy
Mostly Cloudy
 Wind from ESE
Wind: ESE 13 mph , 20 km/h
Temperature: 79°F , 26°C
Dew Point: 72°F , 22°C
Humidity: 79%
Barometer: 30.01 inHg , 1016.3 hPa
Clouds: Mostly Cloudy
Visibility: 10 miles , 16 km
Cloud details: Mostly Cloudy 1500 ft
2018/06/18 13:27 KCRS 181327Z AUTO 12011KT 10SM BKN015 26/22 A3001 RMK AO2 T02610222
 
KGVT - Greenville/Major, Texas, USA
Distance from station: NW 72mi, 115km
Updated: Mon, 18-Jun-2018 8:10am CDT
Mostly Cloudy
Mostly Cloudy
 Wind from SE
Wind: SE 8 mph , 13 km/h
Temperature: 81°F , 27°C
Heat Index: 85°F , 29°C
Dew Point: 72°F , 22°C
Humidity: 74%
Barometer: 30.04 inHg , 1017.3 hPa
Clouds: Mostly Cloudy
Visibility: 10 miles , 16 km
Cloud details: Mostly Cloudy 1400 ft
Mostly Cloudy 2000 ft
2018/06/18 13:10 KGVT 181310Z AUTO 13007KT 10SM BKN014 BKN020 27/22 A3004 RMK AO2

Metar display script from Saratoga-Weather.org